Flight Track Log - Related Links

Times and Time Zones

All times are in EDT time to prevent confusion due to time zone crossing. See the N328AJ flight status page for this flight to view local times or setup timezone preferences in your user account.

Time Position Orientation Groundspeed Altitude Reporting Facility
EDT Latitude Longitude Course Direction KTS MPH feet Rate Location/Type
Mon 04:21:13 PM 24.4636 -81.7356 34° Northeast 192 221 4,000  Level Miami Center
Mon 04:22:15 PM 24.4700 -81.8003 276° West 217 250 6,100 1,984 Climbing Miami Center
Mon 04:23:17 PM 24.5236 -81.7806 19° North 211 243 8,100 1,854 Climbing Miami Center
Mon 04:24:18 PM 24.5808 -81.7728 North 210 242 9,900 1,512 Climbing Miami Center
Mon 04:25:00 PM 24.9413 -81.4524 34° Northeast  Level FlightAware Approximate
Mon 04:25:20 PM 24.6478 -81.7753 358° North 229 264 11,200  Level Miami Center
Mon 04:26:00 PM 25.0078 -81.4025 34° Northeast  Level FlightAware Approximate
Mon 04:26:22 PM 24.7167 -81.7633 North 249 287 12,400  Level Miami Center
Mon 04:27:24 PM 24.7717 -81.7133 40° Northeast 252 290 13,600 1,171 Climbing Miami Center
Mon 04:28:25 PM 24.8228 -81.6592 44° Northeast 252 290 14,800 1,171 Climbing Miami Center
Mon 04:29:27 PM 24.8739 -81.6058 43° Northeast 253 291 16,000 1,161 Climbing Miami Center
Mon 04:30:29 PM 24.9350 -81.5667 30° Northeast 261 300 17,200 1,065 Climbing Miami Center
Mon 04:31:31 PM 25.0047 -81.5364 21° North 257 296 18,200 976 Climbing Miami Center
Mon 04:32:32 PM 25.0711 -81.5061 22° Northeast 257 296 19,200 878 Climbing Miami Center
Mon 04:33:34 PM 25.1386 -81.4772 21° North 258 297 20,000 871 Climbing Miami Center
Mon 04:34:36 PM 25.2186 -81.4417 22° Northeast 258 297 21,000 871 Climbing Miami Center
Mon 04:35:38 PM 25.2867 -81.4108 22° Northeast 259 298 21,800 732 Climbing Miami Center
Mon 04:36:39 PM 25.3550 -81.3817 21° North 260 299 22,500 585 Climbing Miami Center
Mon 04:37:41 PM 25.4231 -81.3525 21° North 261 300 23,000 484 Climbing Miami Center
Mon 04:38:43 PM 25.4922 -81.3225 21° North 261 300 23,500 488 Climbing Miami Center
Mon 04:39:44 PM 25.5606 -81.2928 21° North 261 300 24,000 488 Climbing Miami Center
Mon 04:40:46 PM 25.6300 -81.2617 22° Northeast 264 304 24,500 484 Climbing Miami Center
Mon 04:41:48 PM 25.6992 -81.2644 358° North 250 288 25,000 484 Climbing Miami Center
Mon 04:42:50 PM 25.7775 -81.2903 343° North 245 282 25,500 435 Climbing Miami Center
Mon 04:43:52 PM 25.8422 -81.3106 344° North 244 281 25,900 244 Climbing Miami Center
Mon 04:44:53 PM 25.9097 -81.3314 344° North 251 289 26,000 49 Climbing Miami Center
Mon 04:45:55 PM 25.9811 -81.3550 343° North 263 303 26,000  Level Miami Center
Mon 04:46:57 PM 26.0553 -81.3792 344° North 274 315 26,000  Level Miami Center
Mon 04:47:59 PM 26.1308 -81.4028 344° North 278 320 26,000  Level Miami Center
Mon 04:49:00 PM 26.2067 -81.4269 344° North 279 321 26,000  Level Miami Center
Mon 04:50:02 PM 26.2994 -81.4567 344° North 287 330 26,000  Level Miami Center
Mon 04:51:04 PM 26.3781 -81.4825 344° North 291 335 26,000  Level Miami Center
Mon 04:52:06 PM 26.4583 -81.5086 344° North 297 342 26,000  Level Miami Center
Mon 04:53:08 PM 26.5436 -81.5358 344° North 299 344 26,000  Level Miami Center
Mon 04:54:09 PM 26.6264 -81.5656 342° North 299 344 26,000  Level Miami Center
Mon 04:55:11 PM 26.7103 -81.5906 345° North 299 344 26,000  Level Miami Center
Mon 04:56:13 PM 26.7931 -81.6181 343° North 295 339 26,000  Level Miami Center
Mon 04:57:15 PM 26.8678 -81.6433 343° North 295 339 26,000  Level Miami Center
Mon 04:58:17 PM 26.9531 -81.6708 344° North 295 339 26,000  Level Miami Center
Mon 04:59:18 PM 27.0344 -81.6978 344° North 297 342 26,000  Level Miami Center
Mon 05:00:20 PM 27.1169 -81.7247 344° North 297 342 26,000  Level Miami Center
Mon 05:01:22 PM 27.2003 -81.7525 343° North 297 342 26,000  Level Miami Center
Mon 05:02:24 PM 27.2778 -81.7778 344° North 297 342 26,000  Level Miami Center
Mon 05:03:25 PM 27.3622 -81.8058 344° North 297 342 26,000  Level Miami Center
Mon 05:04:27 PM 27.4447 -81.8333 344° North 297 342 26,000  Level Miami Center
Mon 05:05:29 PM 27.5281 -81.8606 344° North 297 342 26,000  Level Miami Center
Mon 05:06:30 PM 27.6056 -81.8864 344° North 298 343 26,000  Level Miami Center
Mon 05:07:32 PM 27.6892 -81.9139 344° North 298 343 26,000  Level Miami Center
Mon 05:08:34 PM 27.7733 -81.9425 343° North 300 345 26,000  Level Miami Center
Mon 05:09:36 PM 27.8472 -81.9689 342° North 300 345 26,000  Level Miami Center
Mon 05:10:37 PM 27.9200 -82.0161 330° Northwest 302 348 26,000  Level Miami Center
Mon 05:11:39 PM 27.9906 -82.0681 327° Northwest 302 348 26,000  Level Miami Center
Mon 05:12:41 PM 28.0614 -82.1197 327° Northwest 302 348 26,000  Level Miami Center
Mon 05:13:42 PM 28.1467 -82.1828 327° Northwest 302 348 26,000  Level Miami Center
Mon 05:14:44 PM 28.2172 -82.2342 327° Northwest 303 349 26,000  Level Miami Center
Mon 05:15:46 PM 28.2883 -82.2853 328° Northwest 302 348 26,000  Level Miami Center
Mon 05:16:47 PM 28.3653 -82.3383 329° Northwest 302 348 26,000  Level Miami Center
Mon 05:17:49 PM 28.4358 -82.3872 329° Northwest 299 344 26,000  Level Miami Center
Mon 05:18:51 PM 28.5114 -82.4294 334° Northwest 299 344 26,000  Level Miami Center
Mon 05:19:52 PM 28.5861 -82.4722 333° Northwest 299 344 26,000  Level Miami Center
Mon 05:20:57 PM 28.6733 -82.5233 333° Northwest 296 341 26,000  Level Jacksonville Center
Mon 05:21:57 PM 28.7400 -82.5586 335° Northwest 296 341 26,000  Level Jacksonville Center
Mon 05:22:57 PM 28.8153 -82.6011 334° Northwest 296 341 26,000  Level Jacksonville Center
Mon 05:23:57 PM 28.8906 -82.6436 334° Northwest 296 341 26,000  Level Jacksonville Center
Mon 05:24:57 PM 28.9636 -82.6861 333° Northwest 291 335 26,000  Level Jacksonville Center
Mon 05:25:57 PM 29.0408 -82.7286 334° Northwest 291 335 26,000  Level Jacksonville Center
Mon 05:26:57 PM 29.1142 -82.7714 333° Northwest 296 341 26,000  Level Jacksonville Center
Mon 05:27:57 PM 29.1872 -82.8117 334° Northwest 296 341 26,000  Level Jacksonville Center
Mon 05:28:57 PM 29.2622 -82.8569 332° Northwest 296 341 26,000  Level Jacksonville Center
Mon 05:29:57 PM 29.3353 -82.8997 333° Northwest 296 341 26,000  Level Jacksonville Center
Mon 05:30:57 PM 29.4125 -82.9428 334° Northwest 296 341 26,000  Level Jacksonville Center
Mon 05:31:57 PM 29.4856 -82.9856 333° Northwest 296 341 26,000  Level Jacksonville Center
Mon 05:32:57 PM 29.5669 -83.0333 333° Northwest 305 351 26,000  Level Jacksonville Center
Mon 05:33:57 PM 29.6464 -83.0456 352° North 300 345 26,000  Level Jacksonville Center
Mon 05:34:57 PM 29.7300 -83.0361 North 292 336 26,000  Level Jacksonville Center
Mon 05:35:57 PM 29.8133 -83.0267 North 292 336 26,000  Level Jacksonville Center
Mon 05:36:57 PM 29.8969 -83.0194 North 292 336 26,000  Level Jacksonville Center
Mon 05:37:57 PM 29.9764 -83.0100 North 292 336 26,000 50 Level Jacksonville Center
Mon 05:38:57 PM 30.0744 -83.0006 North 297 342 26,100 350 Climbing Jacksonville Center
Mon 05:39:57 PM 30.1494 -82.9933 North 289 333 26,700 450 Climbing Jacksonville Center
Mon 05:40:57 PM 30.2269 -82.9839 North 278 320 27,000 150 Climbing Jacksonville Center
Mon 05:41:57 PM 30.3083 -82.9767 North 278 320 27,000  Level Jacksonville Center
Mon 05:42:57 PM 30.3917 -82.9672 North 278 320 27,000  Level Jacksonville Center
Mon 05:43:57 PM 30.4711 -82.9600 North 283 326 27,000  Level Jacksonville Center
Mon 05:44:57 PM 30.5567 -82.9506 North 295 339 27,000  Level Jacksonville Center
Mon 05:45:57 PM 30.6278 -82.9458 North 289 333 27,000  Level Jacksonville Center
Mon 05:46:57 PM 30.7111 -82.9386 North 289 333 27,000  Level Jacksonville Center
Mon 05:47:57 PM 30.7969 -82.9289 North 294 338 27,000  Level Jacksonville Center
Mon 05:48:57 PM 30.8783 -82.9192 North 294 338 27,000  Level Jacksonville Center
Mon 05:49:57 PM 30.9575 -82.9119 North 294 338 27,000  Level Jacksonville Center
Mon 05:50:57 PM 31.0433 -82.9022 North 294 338 27,000  Level Jacksonville Center
Mon 05:51:57 PM 31.1350 -82.8903 North 301 346 27,000  Level Jacksonville Center
Mon 05:52:57 PM 31.2208 -82.8803 North 301 346 27,000  Level Jacksonville Center
Mon 05:53:57 PM 31.3022 -82.8706 North 301 346 27,000  Level Jacksonville Center
Mon 05:54:57 PM 31.3856 -82.8633 North 296 341 27,000  Level Jacksonville Center
Mon 05:56:35 PM 31.5197 -82.8525 North 301 346 27,000  Level Atlanta Center
Mon 05:57:35 PM 31.6031 -82.8442 North 301 346 27,000  Level Atlanta Center
Mon 05:58:35 PM 31.6844 -82.8358 North 294 338 27,000  Level Atlanta Center
Mon 05:59:35 PM 31.7697 -82.8247 North 294 338 27,000  Level Atlanta Center
Mon 06:00:35 PM 31.8533 -82.8164 North 300 345 27,000  Level Atlanta Center
Mon 06:01:35 PM 31.9367 -82.8078 North 288 331 27,000  Level Atlanta Center
Mon 06:02:35 PM 32.0200 -82.7994 North 294 338 27,000  Level Atlanta Center
Mon 06:03:35 PM 32.1033 -82.7933 North 294 338 27,000  Level Atlanta Center
Mon 06:04:35 PM 32.1847 -82.7822 North 294 338 27,000  Level Atlanta Center
Mon 06:05:35 PM 32.2681 -82.7739 North 294 338 27,000  Level Atlanta Center
Mon 06:06:35 PM 32.3536 -82.7653 North 294 338 27,000  Level Atlanta Center
Mon 06:07:35 PM 32.4369 -82.7567 North 294 338 27,000  Level Atlanta Center
Mon 06:08:35 PM 32.5058 -82.7483 North 294 338 27,000  Level Atlanta Center
Mon 06:09:35 PM 32.5933 -82.7372 North 294 338 27,000  Level Atlanta Center
Mon 06:10:35 PM 32.6789 -82.7283 North 294 338 27,000  Level Atlanta Center
Mon 06:11:35 PM 32.7644 -82.7197 North 294 338 27,000  Level Atlanta Center
Mon 06:12:35 PM 32.8583 -82.7133 North 302 348 27,000  Level Atlanta Center
Mon 06:13:35 PM 32.9394 -82.7022 North 297 342 27,000  Level Atlanta Center
Mon 06:14:35 PM 33.0250 -82.6936 North 297 342 27,000  Level Atlanta Center
Mon 06:15:35 PM 33.1083 -82.6847 North 297 342 27,000  Level Atlanta Center
Mon 06:16:35 PM 33.1917 -82.6761 North 297 342 27,000  Level Atlanta Center
Mon 06:17:35 PM 33.2753 -82.6647 North 292 336 27,000  Level Atlanta Center
Mon 06:18:35 PM 33.3606 -82.6583 North 298 343 27,000  Level Atlanta Center
Mon 06:19:35 PM 33.4419 -82.6472 North 303 349 27,000  Level Atlanta Center
Mon 06:20:35 PM 33.5275 -82.6383 North 303 349 27,000  Level Atlanta Center
Mon 06:21:35 PM 33.6128 -82.6269 North 303 349 27,000  Level Atlanta Center
Mon 06:22:35 PM 33.6942 -82.6206 North 297 342 27,000  Level Atlanta Center
Mon 06:23:35 PM 33.7733 -82.6119 North 291 335 27,000  Level Atlanta Center
Mon 06:24:35 PM 33.8589 -82.6003 North 291 335 27,000  Level Atlanta Center
Mon 06:25:35 PM 33.9403 -82.5914 North 291 335 27,000  Level Atlanta Center
Mon 06:26:35 PM 34.0194 -82.5828 North 291 335 27,000  Level Atlanta Center
Mon 06:27:35 PM 34.1047 -82.5736 North 291 335 27,000  Level Atlanta Center
Mon 06:28:35 PM 34.1758 -82.5650 North 291 335 27,000  Level Atlanta Center
Mon 06:29:35 PM 34.2633 -82.5583 North 291 335 27,000  Level Atlanta Center
Mon 06:30:35 PM 34.3444 -82.5494 North 291 335 27,000  Level Atlanta Center
Mon 06:31:35 PM 34.4239 -82.5406 North 291 335 27,000  Level Atlanta Center
Mon 06:32:35 PM 34.5028 -82.5289 North 291 335 27,000  Level Atlanta Center
Mon 06:33:35 PM 34.5842 -82.5225 North 291 335 27,000  Level Atlanta Center
Mon 06:34:35 PM 34.6653 -82.5058 10° North 291 335 27,000  Level Atlanta Center
Mon 06:35:35 PM 34.7447 -82.5019 North 291 335 27,000  Level Atlanta Center
Mon 06:36:35 PM 34.8258 -82.4953 North 291 335 27,000  Level Atlanta Center
Mon 06:37:35 PM 34.9050 -82.4836 North 291 335 27,000  Level Atlanta Center
Mon 06:38:35 PM 34.9864 -82.4772 North 291 335 27,000  Level Atlanta Center
Mon 06:39:35 PM 35.0678 -82.4681 North 291 335 27,000  Level Atlanta Center
Mon 06:40:35 PM 35.1511 -82.4614 North 291 335 27,000  Level Atlanta Center
Mon 06:41:35 PM 35.2261 -82.4497 North 291 335 27,000  Level Atlanta Center
Mon 06:42:35 PM 35.3053 -82.4431 North 291 335 27,000  Level Atlanta Center
Mon 06:43:35 PM 35.3864 -82.4314 North 291 335 27,000  Level Atlanta Center
Mon 06:44:35 PM 35.4678 -82.4219 North 291 335 27,000  Level Atlanta Center
Mon 06:45:35 PM 35.5489 -82.4128 North 291 335 27,000  Level Atlanta Center
Mon 06:46:35 PM 35.6281 -82.4036 North 291 335 27,000  Level Atlanta Center
Mon 06:47:35 PM 35.7114 -82.3942 North 291 335 27,000  Level Atlanta Center
Mon 06:48:35 PM 35.7989 -82.3822 North 291 335 27,000  Level Atlanta Center
Mon 06:49:35 PM 35.8800 -82.3703 North 291 335 27,000  Level Atlanta Center
Mon 06:50:35 PM 35.9614 -82.3636 North 291 335 27,000  Level Atlanta Center
Mon 06:51:35 PM 36.0444 -82.3517 North 291 335 27,000  Level Atlanta Center
Mon 06:52:35 PM 36.1236 -82.3422 North 291 335 27,000  Level Atlanta Center
Mon 06:53:35 PM 36.2050 -82.3328 North 291 335 27,000  Level Atlanta Center
Mon 06:54:35 PM 36.2861 -82.3233 North 296 341 27,000  Level Atlanta Center
Mon 06:55:35 PM 36.3694 -82.3139 North 291 335 27,000  Level Atlanta Center
Mon 06:56:35 PM 36.4506 -82.3042 North 291 335 27,000  Level Atlanta Center
Mon 06:57:35 PM 36.5339 -82.2947 North 291 335 27,000  Level Atlanta Center
Mon 06:59:12 PM 36.6575 -82.2806 North 295 339 27,000  Level Indianapolis Center
Mon 07:00:14 PM 36.7378 -82.2706 North 294 338 27,000  Level Indianapolis Center
Mon 07:01:16 PM 36.8336 -82.2592 North 294 338 27,000  Level Indianapolis Center
Mon 07:02:17 PM 36.9147 -82.2528 North 294 338 27,000  Level Indianapolis Center
Mon 07:03:19 PM 36.9961 -82.2467 North 294 338 27,000  Level Indianapolis Center
Mon 07:04:21 PM 37.0783 -82.2406 North 294 338 27,000  Level Indianapolis Center
Mon 07:05:23 PM 37.1611 -82.2328 North 295 339 27,000  Level Indianapolis Center
Mon 07:06:24 PM 37.2439 -82.2264 North 295 339 27,000  Level Indianapolis Center
Mon 07:07:26 PM 37.3389 -82.2189 North 295 339 27,000  Level Indianapolis Center
Mon 07:08:28 PM 37.4219 -82.2119 North 295 339 27,000  Level Indianapolis Center
Mon 07:09:29 PM 37.5036 -82.2058 North 295 339 27,000  Level Indianapolis Center
Mon 07:10:31 PM 37.5858 -82.1994 North 295 339 27,000  Level Indianapolis Center
Mon 07:11:33 PM 37.6672 -82.1928 North 295 339 27,000  Level Indianapolis Center
Mon 07:12:34 PM 37.7492 -82.1858 North 295 339 27,000  Level Indianapolis Center
Mon 07:13:36 PM 37.8439 -82.1783 North 294 338 27,000  Level Indianapolis Center
Mon 07:14:38 PM 37.9256 -82.1722 North 294 338 27,000  Level Indianapolis Center
Mon 07:15:39 PM 38.0081 -82.1653 North 294 338 27,000  Level Indianapolis Center
Mon 07:16:41 PM 38.0811 -82.1589 North 294 338 27,000  Level Indianapolis Center
Mon 07:17:42 PM 38.1783 -82.1514 North 294 338 27,000  Level Indianapolis Center
Mon 07:18:44 PM 38.2589 -82.1431 North 293 337 27,000  Level Indianapolis Center
Mon 07:19:45 PM 38.3394 -82.1378 North 293 337 27,000 -49 Level Indianapolis Center
Mon 07:20:47 PM 38.4206 -82.1306 North 292 336 26,900 -339 Descending Indianapolis Center
Mon 07:21:49 PM 38.5019 -82.1239 North 291 335 26,300 -585 Descending Indianapolis Center
Mon 07:22:50 PM 38.5869 -82.1161 North 300 345 25,700 -585 Descending Indianapolis Center
Mon 07:23:52 PM 38.6728 -82.1083 North 302 348 25,100 -585 Descending Indianapolis Center
Mon 07:24:53 PM 38.7586 -82.1019 North 304 350 24,500 -585 Descending Indianapolis Center
Mon 07:25:55 PM 38.8456 -82.0939 North 306 352 23,900 -585 Descending Indianapolis Center
Mon 07:26:56 PM 38.9336 -82.0947 360° North 315 362 23,300 -1,220 Descending Indianapolis Center
Mon 07:27:58 PM 39.0364 -82.1378 342° North 320 368 21,400 -1,645 Descending Indianapolis Center
Mon 07:29:00 PM 39.1264 -82.1728 343° North 331 381 19,900 -1,548 Descending Indianapolis Center
Mon 07:30:02 PM 39.2194 -82.2089 343° North 338 389 18,200 -1,667 Descending Indianapolis Center
Mon 07:30:48 PM 39.2889 -82.2406 341° North 345 397 16,900 -1,672 Descending Indianapolis Center
Mon 07:31:03 PM 39.3106 -82.2439 353° North 341 392 16,500 -1,672 Descending Indianapolis Center
Mon 07:31:49 PM 39.3761 -82.2750 340° North 326 375 15,200 -1,672 Descending Indianapolis Center
Mon 07:32:04 PM 39.3972 -82.2781 354° North 336 387 14,800 -1,636 Descending Indianapolis Center
Mon 07:32:55 PM 39.4714 -82.3136 340° North 309 356 13,400 -1,452 Descending Indianapolis Center
Mon 07:33:06 PM 39.4783 -82.3119 10° North 319 367 13,300 -1,377 Descending Indianapolis Center
Mon 07:33:56 PM 39.5500 -82.3497 338° Northwest 306 352 12,000 -1,355 Descending Indianapolis Center
Mon 07:34:08 PM 39.5572 -82.3514 350° North 311 358 11,900 -1,343 Descending Indianapolis Center
Mon 07:35:03 PM 39.6178 -82.4361 313° West 292 336 10,500 -927 Descending Indianapolis Center
Mon 07:36:11 PM 39.6783 -82.5142 315° West 282 325 10,000 -231 Descending Indianapolis Center
Mon 07:37:13 PM 39.7242 -82.5786 313° West 255 293 10,000  Level Indianapolis Center
Mon 07:38:14 PM 39.7706 -82.6403 314° West 244 281 10,000 -403 Level Indianapolis Center
Mon 07:39:12 PM 39.8197 -82.7039 315° West 241 277 9,200 -1,339 Descending Indianapolis Center
Mon 07:40:06 PM 39.8589 -82.7589 313° West 243 280 7,500 -1,818 Descending Indianapolis Center
Mon 07:40:18 PM 39.8650 -82.7636 329° Northwest 243 280 7,200 -1,475 Descending Indianapolis Center
Mon 07:41:07 PM 39.9069 -82.8267 311° West 242 278 6,000 -1,180 Descending Indianapolis Center
Mon 07:41:19 PM 39.9103 -82.8281 342° North 243 280 6,000 -1,100 Level Indianapolis Center
Mon 07:42:07 PM 39.9228 -82.9056 282° West 230 265 4,900 -1,065 Descending Indianapolis Center
Mon 07:42:21 PM 39.9244 -82.9042 33° Northeast 234 269 4,900 -1,200 Level Indianapolis Center
Mon 07:43:02 PM 39.9269 -82.9717 273° West 216 249 3,800 -1,452 Descending Indianapolis Center
Mon 07:43:23 PM 39.9289 -83.0003 275° West 230 265 3,400 -585 Descending Indianapolis Center
Mon 07:44:24 PM 39.9328 -83.0622 275° West 194 223 3,000 -170 Descending Indianapolis Center
Mon 07:45:09 PM 39.9650 -83.0786 339° North 156 180 3,100 97 Climbing Indianapolis Center
Mon 07:45:26 PM 39.9742 -83.0744 19° North 177 204 3,100 -109 Level Indianapolis Center
Mon 07:46:04 PM 39.9950 -83.0508 41° Northeast 156 180 3,000 -97 Descending Indianapolis Center
Mon 07:46:28 PM 39.9978 -83.0336 78° East 161 185 3,000 -444 Level Indianapolis Center
Mon 07:46:58 PM 39.9972 -83.0047 91° East 152 175 2,600 -787 Descending Indianapolis Center
Mon 07:47:29 PM 39.9981 -82.9786 88° East 153 176 2,200 -1,082 Descending Indianapolis Center
Mon 07:47:59 PM 39.9947 -82.9442 97° East 158 182 1,500 -1,065 Descending Indianapolis Center
Mon 07:48:31 PM 39.9950 -82.9233 89° East 153 176 1,100 -750 Descending Indianapolis Center

Login

Don't have an account? Register now (free) for customized features, flight alerts, and more!